createdAt,value
2017-05-21T00:03:43.265Z,79.10
2017-05-21T00:06:11.588Z,78.80
2017-05-21T00:08:39.625Z,78.50
2017-05-21T00:11:07.592Z,79.10
2017-05-21T00:13:35.926Z,79.50
2017-05-21T00:16:03.921Z,79.90
2017-05-21T00:18:32.244Z,79.60
2017-05-21T00:21:00.196Z,79.80
2017-05-21T00:23:28.573Z,80.50
2017-05-21T00:25:56.897Z,80.70
2017-05-21T00:28:25.222Z,80.60
2017-05-21T00:30:53.264Z,79.40
2017-05-21T00:35:50.902Z,80.00
2017-05-21T00:38:18.917Z,80.10
2017-05-21T00:40:47.248Z,80.70
2017-05-21T00:43:15.213Z,80.70
2017-05-21T00:45:43.245Z,80.20
2017-05-21T00:48:11.197Z,79.50
2017-05-21T00:50:39.905Z,80.40
2017-05-21T00:53:08.287Z,80.80
2017-05-21T00:55:36.613Z,80.50
2017-05-21T00:58:04.170Z,81.50
2017-05-21T01:00:32.165Z,81.30
2017-05-21T01:03:00.854Z,81.50
2017-05-21T01:05:29.173Z,83.20
2017-05-21T01:07:57.541Z,82.30
2017-05-21T01:10:26.237Z,82.50
2017-05-21T01:12:54.576Z,82.20
2017-05-21T01:15:22.600Z,82.50
2017-05-21T01:17:50.560Z,82.70
2017-05-21T01:20:18.889Z,81.30
2017-05-21T01:22:46.893Z,81.80
2017-05-21T01:25:15.218Z,82.00
2017-05-21T01:27:43.172Z,81.90
2017-05-21T01:30:11.549Z,82.60
2017-05-21T01:32:39.511Z,83.10
2017-05-21T01:35:07.545Z,82.70
2017-05-21T01:37:35.611Z,81.30
2017-05-21T01:40:03.585Z,82.60
2017-05-21T01:42:31.909Z,82.80
2017-05-21T01:45:00.649Z,82.80
2017-05-21T01:47:28.604Z,81.80
2017-05-21T01:49:56.573Z,82.10
2017-05-21T01:52:24.978Z,82.10
2017-05-21T01:54:53.331Z,82.90
2017-05-21T01:57:21.711Z,83.40
2017-05-21T01:59:49.804Z,83.70
2017-05-21T02:02:17.774Z,83.70
2017-05-21T02:04:46.825Z,83.30
2017-05-21T02:07:14.826Z,82.40
2017-05-21T02:09:43.157Z,83.50
2017-05-21T02:12:11.108Z,83.50
2017-05-21T02:14:39.113Z,83.10
2017-05-21T02:17:07.437Z,83.50
2017-05-21T02:19:35.388Z,83.00
2017-05-21T02:22:04.146Z,83.60
2017-05-21T02:24:32.469Z,84.40
2017-05-21T02:27:00.800Z,84.40
2017-05-21T02:29:29.168Z,84.60
2017-05-21T02:34:26.765Z,84.30
2017-05-21T02:36:55.144Z,85.40
2017-05-21T02:39:23.489Z,86.10
2017-05-21T02:41:51.449Z,84.10
2017-05-21T02:44:19.838Z,85.20
2017-05-21T02:46:48.536Z,84.80
2017-05-21T02:49:17.233Z,84.70
2017-05-21T02:51:45.606Z,84.30
2017-05-21T02:54:13.931Z,84.30
2017-05-21T02:56:42.998Z,83.40
2017-05-21T02:59:11.373Z,84.30
2017-05-21T03:01:39.335Z,84.30
2017-05-21T03:04:07.669Z,83.40
2017-05-21T03:06:35.673Z,83.10
2017-05-21T03:09:03.993Z,83.50
2017-05-21T03:11:32.312Z,83.30
2017-05-21T03:13:59.927Z,84.20
2017-05-21T03:16:28.292Z,85.00
2017-05-21T03:18:57.003Z,84.40
2017-05-21T03:21:25.399Z,84.40
2017-05-21T03:23:53.362Z,84.40
2017-05-21T03:28:50.691Z,84.30
2017-05-21T03:31:18.662Z,83.80
2017-05-21T03:33:46.631Z,84.10
2017-05-21T03:36:15.453Z,84.60
2017-05-21T03:38:43.782Z,84.60
2017-05-21T03:41:12.109Z,85.30
2017-05-21T03:43:40.126Z,84.70
2017-05-21T03:46:08.098Z,85.00
2017-05-21T03:48:36.058Z,84.50
2017-05-21T03:51:04.077Z,84.30
2017-05-21T03:53:32.401Z,84.90
2017-05-21T03:56:00.352Z,84.90
2017-05-21T03:58:28.726Z,84.70
2017-05-21T04:00:57.046Z,85.00
2017-05-21T04:03:25.009Z,84.50
2017-05-21T04:05:52.633Z,84.40
2017-05-21T04:08:20.201Z,83.70
2017-05-21T04:10:48.539Z,84.10
2017-05-21T04:13:16.557Z,84.00
2017-05-21T04:15:44.885Z,84.30
2017-05-21T04:18:13.210Z,83.90
2017-05-21T04:20:41.208Z,84.10
2017-05-21T04:23:09.551Z,85.20
2017-05-21T04:25:37.506Z,84.20
2017-05-21T04:28:05.512Z,84.10
2017-05-21T04:30:33.460Z,86.40
2017-05-21T04:33:02.516Z,86.40
2017-05-21T04:38:00.160Z,83.90
2017-05-21T04:40:28.473Z,84.50
2017-05-21T04:42:56.861Z,84.70
2017-05-21T04:45:24.824Z,84.10
2017-05-21T04:47:53.163Z,84.40
2017-05-21T04:50:21.550Z,84.30
2017-05-21T04:52:50.258Z,83.70
2017-05-21T04:55:18.570Z,84.40
2017-05-21T04:57:46.601Z,85.40
2017-05-21T05:00:14.549Z,84.10
2017-05-21T05:02:42.870Z,83.70
2017-05-21T05:05:10.865Z,83.70
2017-05-21T05:07:39.550Z,83.60
2017-05-21T05:10:07.902Z,83.60
2017-05-21T05:12:36.303Z,83.90
2017-05-21T05:15:04.620Z,84.30
2017-05-21T05:17:32.578Z,84.00
2017-05-21T05:22:29.874Z,83.50
2017-05-21T05:24:57.829Z,83.80
2017-05-21T05:27:25.828Z,84.30
2017-05-21T05:29:54.166Z,83.90
2017-05-21T05:32:22.142Z,82.90
2017-05-21T05:34:50.141Z,82.70
2017-05-21T05:37:18.469Z,82.40
2017-05-21T05:39:46.421Z,82.90
2017-05-21T05:42:14.428Z,82.60
2017-05-21T05:44:43.125Z,81.70
2017-05-21T05:47:11.453Z,82.30
2017-05-21T05:49:39.824Z,82.20
2017-05-21T05:52:08.166Z,81.90
2017-05-21T05:57:05.821Z,81.60
2017-05-21T05:59:34.516Z,82.10
2017-05-21T06:04:32.541Z,83.50
2017-05-21T06:07:00.857Z,79.40
2017-05-21T06:09:29.918Z,79.60
2017-05-21T06:11:57.912Z,78.50
2017-05-21T06:14:26.233Z,78.90
2017-05-21T06:16:54.200Z,78.40
2017-05-21T06:19:22.226Z,79.00
2017-05-21T06:21:50.186Z,77.60
2017-05-21T06:24:18.502Z,78.30
2017-05-21T06:26:47.208Z,78.80
2017-05-21T06:29:15.529Z,78.30
2017-05-21T06:31:43.849Z,78.40
2017-05-21T06:34:12.213Z,77.80
2017-05-21T06:36:41.267Z,76.30
2017-05-21T06:39:09.606Z,77.10
2017-05-21T06:41:38.001Z,78.00
2017-05-21T06:44:06.337Z,77.30
2017-05-21T06:46:34.277Z,73.60
2017-05-21T06:49:01.873Z,72.80
2017-05-21T06:51:30.556Z,70.10
2017-05-21T06:53:58.100Z,69.40
2017-05-21T06:56:26.089Z,68.90
2017-05-21T06:58:54.054Z,71.10
2017-05-21T07:01:22.010Z,70.60
2017-05-21T07:03:50.377Z,70.70
2017-05-21T07:06:18.689Z,70.20
2017-05-21T07:08:47.060Z,68.40
2017-05-21T07:11:15.421Z,67.30
2017-05-21T07:13:43.740Z,67.40
2017-05-21T07:16:12.064Z,66.50
2017-05-21T07:21:09.717Z,61.10
2017-05-21T07:23:38.053Z,66.10
2017-05-21T07:26:06.424Z,63.80
2017-05-21T07:28:35.480Z,60.30
2017-05-21T07:31:03.433Z,63.70
2017-05-21T07:33:31.461Z,60.60
2017-05-21T07:35:59.016Z,61.10
2017-05-21T07:38:27.708Z,62.20
2017-05-21T07:45:54.289Z,61.10
2017-05-21T07:48:22.310Z,61.90
2017-05-21T07:50:50.295Z,58.00
2017-05-21T07:53:18.877Z,58.30
2017-05-21T07:55:46.889Z,58.70
2017-05-21T07:58:14.830Z,58.60
2017-05-21T08:00:43.148Z,57.90
2017-05-21T08:03:11.532Z,57.10
2017-05-21T08:05:39.865Z,55.60
2017-05-21T08:08:07.827Z,57.30
2017-05-21T08:10:36.215Z,57.40
2017-05-21T08:15:33.429Z,54.70
2017-05-21T08:18:01.796Z,52.60
2017-05-21T08:20:29.744Z,55.80
2017-05-21T08:22:57.685Z,50.90
2017-05-21T08:25:26.045Z,51.80
2017-05-21T08:27:54.007Z,57.40
2017-05-21T08:30:21.979Z,52.10
2017-05-21T08:32:50.366Z,49.80
2017-05-21T08:35:18.308Z,50.00
2017-05-21T08:37:46.620Z,54.30
2017-05-21T08:40:15.086Z,52.70
2017-05-21T08:42:43.397Z,54.10
2017-05-21T08:45:11.388Z,52.90
2017-05-21T08:47:39.889Z,52.90
2017-05-21T08:52:37.113Z,51.10
2017-05-21T08:55:05.130Z,47.20
2017-05-21T08:57:33.445Z,50.50
2017-05-21T09:00:01.395Z,48.70
2017-05-21T09:02:29.756Z,46.40
2017-05-21T09:04:57.706Z,48.00
2017-05-21T09:07:25.657Z,46.20
2017-05-21T09:09:54.069Z,47.00
2017-05-21T09:12:22.406Z,47.30
2017-05-21T09:14:51.108Z,46.90
2017-05-21T09:17:19.593Z,48.00
2017-05-21T09:19:48.701Z,46.50
2017-05-21T09:22:17.013Z,45.40
2017-05-21T09:24:45.021Z,45.20
2017-05-21T09:27:13.701Z,42.90
2017-05-21T09:29:41.646Z,43.60
2017-05-21T09:32:09.645Z,41.30
2017-05-21T09:34:37.965Z,38.70
2017-05-21T09:37:06.281Z,38.10
2017-05-21T09:39:35.377Z,38.70
2017-05-21T09:42:03.313Z,42.10
2017-05-21T09:44:31.253Z,40.40
2017-05-21T09:46:59.674Z,39.70
2017-05-21T09:49:27.624Z,42.10
2017-05-21T09:51:55.577Z,41.90
2017-05-21T09:54:23.954Z,36.10
2017-05-21T09:56:51.928Z,39.30
2017-05-21T09:59:20.266Z,42.00
2017-05-21T10:01:48.633Z,38.00
2017-05-21T10:04:16.953Z,34.80
2017-05-21T10:11:43.474Z,36.20
2017-05-21T10:14:11.788Z,40.90
2017-05-21T10:16:40.887Z,35.30
2017-05-21T10:24:07.436Z,33.70
2017-05-21T10:26:35.376Z,34.80
2017-05-21T10:29:03.308Z,35.90
2017-05-21T10:31:31.665Z,34.70
2017-05-21T10:33:59.605Z,33.50
2017-05-21T10:36:27.550Z,35.70
2017-05-21T10:38:55.921Z,33.90
2017-05-21T10:46:22.878Z,39.00
2017-05-21T10:53:49.521Z,40.60
2017-05-21T10:56:17.460Z,40.20
2017-05-21T10:58:45.773Z,38.80
2017-05-21T11:01:14.886Z,39.70
2017-05-21T11:03:43.193Z,38.70
2017-05-21T11:06:11.133Z,38.30
2017-05-21T11:08:39.147Z,37.90
2017-05-21T11:11:07.461Z,36.40
2017-05-21T11:13:35.418Z,36.20
2017-05-21T11:16:03.416Z,35.30
2017-05-21T11:18:31.733Z,33.80
2017-05-21T11:20:59.680Z,30.30
2017-05-21T11:23:28.037Z,32.30
2017-05-21T11:25:56.344Z,35.20
2017-05-21T11:28:24.681Z,35.60
2017-05-21T11:30:52.688Z,34.10
2017-05-21T11:38:19.731Z,35.00
2017-05-21T11:40:47.686Z,32.20
2017-05-21T11:43:16.737Z,37.10
2017-05-21T11:45:45.096Z,31.80
2017-05-21T11:48:13.038Z,35.10
2017-05-21T11:50:41.357Z,35.30
2017-05-21T11:53:09.360Z,33.80
2017-05-21T11:55:37.306Z,34.50
2017-05-21T11:58:05.245Z,35.40
2017-05-21T12:00:33.600Z,37.00
2017-05-21T12:03:01.916Z,37.00
2017-05-21T12:05:29.865Z,35.80
2017-05-21T12:12:56.758Z,33.50
2017-05-21T12:15:25.136Z,36.00
2017-05-21T12:17:53.094Z,35.80
2017-05-21T12:20:21.408Z,33.50
2017-05-21T12:22:50.577Z,36.60
2017-05-21T12:25:18.523Z,34.70
2017-05-21T12:32:45.060Z,31.40
2017-05-21T12:35:13.374Z,34.20
2017-05-21T12:37:41.352Z,33.60
2017-05-21T12:40:09.313Z,36.80
2017-05-21T12:42:37.646Z,36.90
2017-05-21T12:45:05.638Z,32.60
2017-05-21T12:47:33.952Z,33.80
2017-05-21T12:50:02.262Z,31.70
2017-05-21T12:52:30.628Z,32.90
2017-05-21T12:54:58.573Z,36.20
2017-05-21T12:57:26.889Z,34.90
2017-05-21T12:59:55.260Z,34.70
2017-05-21T13:02:23.221Z,37.90
2017-05-21T13:04:52.289Z,35.20
2017-05-21T13:07:20.665Z,32.90
2017-05-21T13:09:48.636Z,32.00
2017-05-21T13:14:45.529Z,32.00
2017-05-21T13:17:13.841Z,32.50
2017-05-21T13:19:42.149Z,33.00
2017-05-21T13:22:10.512Z,36.70
2017-05-21T13:24:39.200Z,33.50
2017-05-21T13:27:07.506Z,30.90
2017-05-21T13:29:35.865Z,34.20
2017-05-21T13:32:04.181Z,31.20
2017-05-21T13:34:32.492Z,36.50
2017-05-21T13:37:00.475Z,33.40
2017-05-21T13:39:28.796Z,31.70
2017-05-21T13:41:57.104Z,31.30
2017-05-21T13:44:25.477Z,31.10
2017-05-21T13:46:53.433Z,30.90
2017-05-21T13:49:21.757Z,33.30
2017-05-21T13:51:50.500Z,35.00
2017-05-21T13:54:18.810Z,32.90
2017-05-21T13:56:46.748Z,37.40
2017-05-21T13:59:14.733Z,34.00
2017-05-21T14:01:43.044Z,34.40
2017-05-21T14:04:10.997Z,34.90
2017-05-21T14:06:39.377Z,35.30
2017-05-21T14:09:08.322Z,40.00
2017-05-21T14:14:05.970Z,37.00
2017-05-21T14:16:34.277Z,34.50
2017-05-21T14:21:31.918Z,39.00
2017-05-21T14:23:59.861Z,36.90
2017-05-21T14:26:28.172Z,36.20
2017-05-21T14:33:54.328Z,34.50
2017-05-21T14:36:23.076Z,39.30
2017-05-21T14:38:51.032Z,36.40
2017-05-21T14:46:16.825Z,35.00
2017-05-21T14:48:45.139Z,35.10
2017-05-21T14:51:13.521Z,36.20
2017-05-21T14:53:41.829Z,35.40
2017-05-21T14:56:10.163Z,41.00
2017-05-21T14:58:38.538Z,39.60
2017-05-21T15:01:06.480Z,40.50
2017-05-21T15:03:34.788Z,38.50
2017-05-21T15:06:02.768Z,40.10
2017-05-21T15:10:59.969Z,38.60
2017-05-21T15:13:28.348Z,39.10
2017-05-21T15:15:56.662Z,37.90
2017-05-21T15:18:24.630Z,36.60
2017-05-21T15:20:53.464Z,37.60
2017-05-21T15:23:21.028Z,36.10
2017-05-21T15:25:49.024Z,34.50
2017-05-21T15:28:17.037Z,36.40
2017-05-21T15:30:45.041Z,38.80
2017-05-21T15:33:13.353Z,36.60
2017-05-21T15:35:41.713Z,36.40
2017-05-21T15:38:10.029Z,36.30
2017-05-21T15:40:37.974Z,34.60
2017-05-21T15:43:06.337Z,33.10
2017-05-21T15:45:34.666Z,33.70
2017-05-21T15:48:03.721Z,36.90
2017-05-21T15:50:31.708Z,38.20
2017-05-21T15:55:28.916Z,40.10
2017-05-21T16:00:26.240Z,39.00
2017-05-21T16:02:54.553Z,41.60
2017-05-21T16:07:52.805Z,38.90
2017-05-21T16:10:20.776Z,38.30
2017-05-21T16:12:49.153Z,41.60
2017-05-21T16:15:17.473Z,40.20
2017-05-21T16:17:45.781Z,38.00
2017-05-21T16:20:13.797Z,40.90
2017-05-21T16:22:42.109Z,41.20
2017-05-21T16:25:10.434Z,43.40
2017-05-21T16:27:38.438Z,43.00
2017-05-21T16:30:06.757Z,42.80
2017-05-21T16:32:35.068Z,41.60
2017-05-21T16:37:31.989Z,41.60
2017-05-21T16:39:59.971Z,38.10
2017-05-21T16:42:28.361Z,42.60
2017-05-21T16:44:56.693Z,38.50
2017-05-21T16:47:25.038Z,38.60
2017-05-21T16:49:53.069Z,39.80
2017-05-21T16:52:21.406Z,41.50
2017-05-21T16:54:49.732Z,42.80
2017-05-21T16:57:18.186Z,39.10
2017-05-21T17:02:15.873Z,39.80
2017-05-21T17:04:43.909Z,41.00
2017-05-21T17:07:12.307Z,42.40
2017-05-21T17:12:09.653Z,45.30
2017-05-21T17:14:37.597Z,44.00
2017-05-21T17:17:05.940Z,46.10
2017-05-21T17:19:33.972Z,46.30
2017-05-21T17:22:01.973Z,43.90
2017-05-21T17:24:29.946Z,42.90
2017-05-21T17:26:58.412Z,43.30
2017-05-21T17:29:27.973Z,43.90
2017-05-21T17:31:56.813Z,43.80
2017-05-21T17:34:24.821Z,41.10
2017-05-21T17:36:52.870Z,42.20
2017-05-21T17:39:21.233Z,43.70
2017-05-21T17:41:49.654Z,44.60
2017-05-21T17:44:17.637Z,44.00
2017-05-21T17:46:45.984Z,41.60
2017-05-21T17:49:14.000Z,42.20
2017-05-21T17:51:42.308Z,43.50
2017-05-21T17:54:10.624Z,43.60
2017-05-21T17:56:39.030Z,45.60
2017-05-21T17:59:08.233Z,41.90
2017-05-21T18:01:37.526Z,40.70
2017-05-21T18:04:05.953Z,41.00
2017-05-21T18:06:33.905Z,44.00
2017-05-21T18:09:01.899Z,42.80
2017-05-21T18:11:30.464Z,44.20
2017-05-21T18:13:58.870Z,43.80
2017-05-21T18:16:27.248Z,44.40
2017-05-21T18:18:55.729Z,43.60
2017-05-21T18:23:53.397Z,46.10
2017-05-21T18:26:22.106Z,45.50
2017-05-21T18:31:19.024Z,45.30
2017-05-21T18:33:48.393Z,47.00
2017-05-21T18:36:18.599Z,46.80
2017-05-21T18:41:15.542Z,47.00
2017-05-21T18:43:43.874Z,46.40
2017-05-21T18:46:11.874Z,45.50
2017-05-21T18:48:40.713Z,47.50
2017-05-21T18:51:09.037Z,47.50
2017-05-21T18:53:37.353Z,47.60
2017-05-21T18:56:06.505Z,47.80
2017-05-21T19:01:03.368Z,47.70
2017-05-21T19:03:31.637Z,48.20
2017-05-21T19:08:28.845Z,49.90
2017-05-21T19:10:57.172Z,49.90
2017-05-21T19:13:25.881Z,51.90
2017-05-21T19:15:54.225Z,52.80
2017-05-21T19:18:22.746Z,52.90
2017-05-21T19:20:51.817Z,52.60
2017-05-21T19:23:20.173Z,52.40
2017-05-21T19:28:17.818Z,53.90
2017-05-21T19:30:46.152Z,52.80
2017-05-21T19:33:14.629Z,51.70
2017-05-21T19:35:42.941Z,53.40
2017-05-21T19:40:40.704Z,52.10
2017-05-21T19:43:09.037Z,53.20
2017-05-21T19:45:36.989Z,52.20
2017-05-21T19:48:05.417Z,51.10
2017-05-21T19:50:33.360Z,52.20
2017-05-21T19:53:01.670Z,51.80
2017-05-21T19:55:30.909Z,53.20
2017-05-21T19:57:59.963Z,52.30
2017-05-21T20:00:28.295Z,53.80
2017-05-21T20:02:56.717Z,55.20
2017-05-21T20:05:25.410Z,53.10
2017-05-21T20:07:53.378Z,53.90
2017-05-21T20:10:21.781Z,52.30
2017-05-21T20:12:50.138Z,55.00
2017-05-21T20:17:47.850Z,56.40
2017-05-21T20:20:16.165Z,55.70
2017-05-21T20:22:44.494Z,56.10
2017-05-21T20:25:13.328Z,54.80
2017-05-21T20:30:11.288Z,56.40
2017-05-21T20:32:39.305Z,55.90
2017-05-21T20:35:07.629Z,57.50
2017-05-21T20:37:36.690Z,57.40
2017-05-21T20:40:05.129Z,56.60
2017-05-21T20:42:33.086Z,57.50
2017-05-21T20:45:01.034Z,58.30
2017-05-21T20:47:29.429Z,58.30
2017-05-21T20:49:57.374Z,57.00
2017-05-21T20:52:25.338Z,58.50
2017-05-21T20:54:53.750Z,57.30
2017-05-21T20:57:21.710Z,59.00
2017-05-21T20:59:49.662Z,58.90
2017-05-21T21:02:18.425Z,59.90
2017-05-21T21:04:46.365Z,57.70
2017-05-21T21:07:15.053Z,59.10
2017-05-21T21:09:43.475Z,59.10
2017-05-21T21:14:40.332Z,59.80
2017-05-21T21:17:08.710Z,59.10
2017-05-21T21:19:36.658Z,60.30
2017-05-21T21:27:02.861Z,60.20
2017-05-21T21:29:31.184Z,61.10
2017-05-21T21:31:59.178Z,61.60
2017-05-21T21:34:27.497Z,62.40
2017-05-21T21:36:55.449Z,59.50
2017-05-21T21:39:23.460Z,60.00
2017-05-21T21:41:51.831Z,61.70
2017-05-21T21:44:19.770Z,61.80
2017-05-21T21:49:17.053Z,62.30
2017-05-21T21:51:45.377Z,62.00
2017-05-21T21:59:11.725Z,62.70
2017-05-21T22:01:39.747Z,62.70
2017-05-21T22:04:08.061Z,61.30
2017-05-21T22:06:36.745Z,64.00
2017-05-21T22:09:05.122Z,62.50
2017-05-21T22:11:33.077Z,63.20
2017-05-21T22:14:01.022Z,63.80
2017-05-21T22:16:29.386Z,63.60
2017-05-21T22:18:57.335Z,61.70
2017-05-21T22:21:25.659Z,63.30
2017-05-21T22:23:53.674Z,64.80
2017-05-21T22:26:22.002Z,64.00
2017-05-21T22:28:50.355Z,64.90
2017-05-21T22:31:19.086Z,64.90
2017-05-21T22:36:16.664Z,64.80
2017-05-21T22:38:45.052Z,65.00
2017-05-21T22:41:13.736Z,64.40
2017-05-21T22:43:41.673Z,65.80
2017-05-21T22:46:09.673Z,65.10
2017-05-21T22:48:38.730Z,64.80
2017-05-21T22:51:06.676Z,64.50
2017-05-21T22:53:35.041Z,66.10
2017-05-21T22:56:02.985Z,66.50
2017-05-21T22:58:30.936Z,65.30
2017-05-21T23:00:59.297Z,64.90
2017-05-21T23:03:27.242Z,65.30
2017-05-21T23:05:55.568Z,66.10
2017-05-21T23:08:23.950Z,66.80
2017-05-21T23:10:51.913Z,66.90
2017-05-21T23:13:20.629Z,67.00
2017-05-21T23:15:48.629Z,67.40
2017-05-21T23:18:16.578Z,66.90
2017-05-21T23:20:44.892Z,67.70
2017-05-21T23:28:12.365Z,66.50
2017-05-21T23:30:40.777Z,67.60
2017-05-21T23:33:08.738Z,68.30
2017-05-21T23:35:36.681Z,68.20
2017-05-21T23:38:05.040Z,68.20
2017-05-21T23:40:33.361Z,68.80
2017-05-21T23:43:01.681Z,70.00
2017-05-21T23:45:30.041Z,69.50
2017-05-21T23:47:58.351Z,70.70
2017-05-21T23:50:26.673Z,70.90
2017-05-21T23:55:24.369Z,71.30
2017-05-21T23:57:52.334Z,71.60
